Time;durP1;ratioP1;P1;durP2;ratioP2;P2;SDS_P1;SDS_P2;PMS_P1;PMS_P2;Temp;Humidity;BMP_temperature;BMP_pressure;BME280_temperature;BME280_humidity;BME280_pressure;Samples;Min_cycle;Max_cycle;Signal;HPM_P1;HPM_P2
2024/04/03 00:01:33;;;;;;;1.08;0.60;;;;;;;21.83;36.54;99733.75;4498122;28;24495;-53
2024/04/03 00:03:43;;;;;;;2.08;0.70;;;;;;;21.81;35.99;99741.91;4498418;28;21218;-52
2024/04/03 00:05:53;;;;;;;1.75;0.80;;;;;;;21.83;36.21;99741.53;4499668;28;20057;-53
2024/04/03 00:08:04;;;;;;;1.85;0.70;;;;;;;21.83;36.23;99739.47;4498432;28;20034;-53
2024/04/03 00:10:15;;;;;;;1.33;0.60;;;;;;;21.82;36.17;99734.94;4499374;28;20038;-51
2024/04/03 00:12:25;;;;;;;1.48;0.63;;;;;;;21.82;36.58;99734.94;4498337;28;20441;-52
2024/04/03 00:14:36;;;;;;;1.23;0.63;;;;;;;21.82;36.54;99726.31;4499514;28;20031;-51
2024/04/03 00:16:46;;;;;;;1.45;0.75;;;;;;;21.81;36.53;99727.56;4498753;28;20462;-51
2024/04/03 00:18:57;;;;;;;2.13;0.80;;;;;;;21.81;36.21;99727.56;4497422;28;20045;-51
2024/04/03 00:21:07;;;;;;;1.38;0.63;;;;;;;21.81;36.14;99730.44;4499160;28;22083;-54
2024/04/03 00:23:17;;;;;;;1.25;0.70;;;;;;;21.80;36.61;99734.50;4500128;28;20038;-52
2024/04/03 00:25:28;;;;;;;0.73;0.50;;;;;;;21.81;36.63;99723.84;4499136;28;21161;-50
2024/04/03 00:27:38;;;;;;;0.80;0.55;;;;;;;21.81;36.57;99723.84;4498446;28;20034;-51
2024/04/03 00:29:49;;;;;;;1.30;0.70;;;;;;;21.80;36.92;99725.88;4499950;28;20042;-50
2024/04/03 00:31:59;;;;;;;1.67;0.70;;;;;;;21.79;36.76;99724.25;4498236;28;20486;-51
2024/04/03 00:34:10;;;;;;;1.20;0.70;;;;;;;21.79;36.94;99721.38;4498666;28;20049;-51
2024/04/03 00:36:20;;;;;;;1.77;0.70;;;;;;;21.79;37.28;99718.50;4497350;28;20109;-51
2024/04/03 00:38:31;;;;;;;2.10;0.77;;;;;;;21.79;37.02;99721.38;4497375;28;20030;-54
2024/04/03 00:40:41;;;;;;;1.42;0.68;;;;;;;21.78;36.84;99725.47;4481707;28;20046;-50
2024/04/03 00:42:51;;;;;;;1.10;0.70;;;;;;;21.79;36.84;99724.25;4498259;28;20137;-50
2024/04/03 00:45:02;;;;;;;1.83;0.70;;;;;;;21.79;36.53;99717.66;4497596;28;20049;-52
2024/04/03 00:47:14;;;;;;;2.35;0.70;;;;;;;21.77;36.64;99720.94;4498499;28;20065;-50
2024/04/03 00:49:24;;;;;;;0.88;0.60;;;;;;;21.77;36.28;99723.00;4498045;28;20089;-51
2024/04/03 00:51:36;;;;;;;0.88;0.68;;;;;;;21.77;36.25;99726.69;4498500;28;20076;-51
2024/04/03 00:53:47;;;;;;;1.85;0.98;;;;;;;21.76;36.12;99719.28;4497966;28;20501;-52
2024/04/03 00:55:57;;;;;;;1.10;0.60;;;;;;;21.76;36.47;99718.47;4496421;28;20052;-50
2024/04/03 00:58:08;;;;;;;1.27;0.60;;;;;;;21.75;35.98;99709.03;4501150;28;20033;-51
2024/04/03 01:00:18;;;;;;;1.85;0.70;;;;;;;21.75;36.36;99703.28;4497049;28;20144;-53
2024/04/03 01:02:29;;;;;;;1.45;0.77;;;;;;;21.76;36.59;99701.22;4498046;28;20478;-54
2024/04/03 01:04:39;;;;;;;1.05;0.60;;;;;;;21.75;36.05;99703.28;4496853;28;20065;-51
2024/04/03 01:06:49;;;;;;;1.48;0.82;;;;;;;21.74;35.86;99704.47;4498833;28;20033;-52
2024/04/03 01:09:00;;;;;;;1.90;0.70;;;;;;;21.74;36.10;99704.47;4498066;28;20038;-51
2024/04/03 01:11:11;;;;;;;0.95;0.60;;;;;;;21.75;35.88;99702.44;4498733;28;20442;-50
2024/04/03 01:13:21;;;;;;;1.23;0.60;;;;;;;21.73;35.76;99699.94;4498980;28;20041;-52
2024/04/03 01:15:31;;;;;;;1.77;0.95;;;;;;;21.74;35.57;99703.66;4496199;28;20117;-50
2024/04/03 01:17:42;;;;;;;1.55;0.75;;;;;;;21.74;35.50;99707.34;4498036;28;21421;-50
2024/04/03 01:19:52;;;;;;;1.00;0.60;;;;;;;21.72;36.10;99698.28;4498285;28;20050;-51
2024/04/03 01:22:03;;;;;;;0.70;0.60;;;;;;;21.73;36.18;99693.38;4498619;28;20038;-50
2024/04/03 01:24:13;;;;;;;1.55;0.70;;;;;;;21.73;36.15;99699.94;4498583;28;20041;-51
2024/04/03 01:26:25;;;;;;;1.23;0.60;;;;;;;21.72;36.07;99692.53;4496575;28;20030;-50
2024/04/03 01:28:35;;;;;;;1.35;0.80;;;;;;;21.73;36.45;99688.47;4497925;28;20120;-54
2024/04/03 01:30:46;;;;;;;1.20;0.50;;;;;;;21.71;36.35;99690.91;4497489;28;20077;-52
2024/04/03 01:32:56;;;;;;;0.90;0.65;;;;;;;21.71;36.41;99690.91;4498810;28;20029;-50
2024/04/03 01:35:06;;;;;;;1.08;0.65;;;;;;;21.72;36.49;99683.91;4496265;28;20049;-50
2024/04/03 01:37:17;;;;;;;0.68;0.47;;;;;;;21.70;36.51;99683.53;4498737;28;20104;-54
2024/04/03 01:39:30;;;;;;;1.00;0.50;;;;;;;21.70;36.90;99677.78;4496784;28;20057;-51
2024/04/03 01:41:40;;;;;;;1.55;0.70;;;;;;;21.69;36.68;99676.09;4489886;28;20030;-50
2024/04/03 01:43:52;;;;;;;1.27;0.60;;;;;;;21.70;37.13;99679.81;4499335;28;20498;-51
2024/04/03 01:46:03;;;;;;;1.70;0.52;;;;;;;21.70;37.34;99680.66;4463354;28;20095;-50
2024/04/03 01:48:13;;;;;;;1.05;0.60;;;;;;;21.70;37.32;99676.94;4481006;28;20133;-50
2024/04/03 01:50:38;;;;;;;1.65;0.60;;;;;;;21.69;37.03;99670.34;4497270;28;20041;-50
2024/04/03 01:52:48;;;;;;;1.55;0.60;;;;;;;21.69;36.99;99670.34;4498339;28;20029;-53
2024/04/03 01:54:58;;;;;;;1.90;0.60;;;;;;;21.68;37.14;99668.72;4499048;28;20450;-50
2024/04/03 01:57:09;;;;;;;1.02;0.70;;;;;;;21.68;37.64;99662.16;4496809;28;27445;-50
2024/04/03 01:59:19;;;;;;;0.57;0.50;;;;;;;21.68;37.40;99662.97;4496123;28;21001;-50
2024/04/03 02:01:29;;;;;;;0.73;0.60;;;;;;;21.67;37.96;99661.34;4498285;28;20042;-50
2024/04/03 02:03:40;;;;;;;0.63;0.50;;;;;;;21.67;38.00;99655.59;4498566;28;20022;-50
2024/04/03 02:05:50;;;;;;;1.20;0.70;;;;;;;21.67;38.30;99649.84;4498213;28;20498;-50
2024/04/03 02:08:00;;;;;;;0.88;0.55;;;;;;;21.67;38.24;99660.50;4498416;28;20089;-51
2024/04/03 02:10:11;;;;;;;0.52;0.50;;;;;;;21.67;38.67;99666.25;4496522;28;20038;-51
2024/04/03 02:12:21;;;;;;;0.80;0.55;;;;;;;21.67;38.43;99660.50;4495371;28;20039;-50
2024/04/03 02:14:32;;;;;;;0.60;0.50;;;;;;;21.66;38.48;99658.88;4499183;28;20125;-50
2024/04/03 02:16:43;;;;;;;0.70;0.50;;;;;;;21.66;38.52;99653.13;4497773;28;20639;-52
2024/04/03 02:18:53;;;;;;;0.82;0.57;;;;;;;21.66;39.00;99661.75;4497891;28;20038;-50
2024/04/03 02:21:04;;;;;;;0.82;0.50;;;;;;;21.66;39.19;99659.66;4496137;28;20046;-51
2024/04/03 02:23:15;;;;;;;1.00;0.50;;;;;;;21.65;39.12;99655.16;4496365;28;20030;-51
2024/04/03 02:25:25;;;;;;;0.73;0.47;;;;;;;21.65;39.66;99658.03;4497706;28;20041;-51
2024/04/03 02:27:35;;;;;;;0.70;0.60;;;;;;;21.66;39.44;99653.13;4497002;28;20050;-51
2024/04/03 02:29:46;;;;;;;0.50;0.45;;;;;;;21.65;39.51;99645.72;4497100;28;20077;-51
2024/04/03 02:31:56;;;;;;;0.73;0.43;;;;;;;21.64;39.88;99653.53;4497031;28;20570;-52
2024/04/03 02:34:07;;;;;;;0.95;0.43;;;;;;;21.63;39.15;99646.09;4497289;28;20380;-51
2024/04/03 02:36:18;;;;;;;0.77;0.40;;;;;;;21.64;39.40;99655.56;4496297;28;20042;-50
2024/04/03 02:38:28;;;;;;;0.77;0.50;;;;;;;21.63;39.40;99651.84;4496300;28;20038;-51
2024/04/03 02:40:39;;;;;;;1.00;0.50;;;;;;;21.63;39.38;99648.16;4496767;28;20557;-51
2024/04/03 02:42:49;;;;;;;0.75;0.50;;;;;;;21.63;39.73;99643.22;4496837;28;20807;-54
2024/04/03 02:44:59;;;;;;;0.95;0.50;;;;;;;21.62;39.56;99653.09;4495658;28;20667;-51
2024/04/03 02:47:10;;;;;;;0.50;0.50;;;;;;;21.62;39.68;99644.47;4497427;28;20059;-53
2024/04/03 02:49:20;;;;;;;0.50;0.40;;;;;;;21.62;39.84;99650.22;4494924;28;20605;-51
2024/04/03 02:51:31;;;;;;;0.65;0.50;;;;;;;21.60;39.61;99644.03;4497038;28;20035;-50
2024/04/03 02:53:41;;;;;;;0.95;0.57;;;;;;;21.63;39.56;99648.16;4497626;28;20690;-52
2024/04/03 02:55:52;;;;;;;0.90;0.60;;;;;;;21.60;39.64;99644.03;4495206;28;20030;-50
2024/04/03 02:58:03;;;;;;;0.68;0.50;;;;;;;21.61;40.08;99634.19;4497484;28;20145;-53
2024/04/03 03:00:13;;;;;;;0.80;0.50;;;;;;;21.60;39.55;99637.44;4500046;28;20050;-51
2024/04/03 03:02:24;;;;;;;1.02;0.60;;;;;;;21.60;40.07;99641.16;4499383;28;20036;-53
2024/04/03 03:04:42;;;;;;;0.50;0.40;;;;;;;21.60;39.52;99631.72;4499812;28;20019;-50
2024/04/03 03:06:52;;;;;;;0.43;0.40;;;;;;;21.60;39.82;99634.59;4501673;28;20560;-51
2024/04/03 03:09:03;;;;;;;0.95;0.50;;;;;;;21.58;39.71;99632.13;4500885;28;20034;-54
2024/04/03 03:11:13;;;;;;;0.90;0.50;;;;;;;21.59;39.94;99633.78;4499201;28;20030;-50
2024/04/03 03:13:26;;;;;;;0.60;0.50;;;;;;;21.58;39.84;99629.25;4499720;28;20038;-53
2024/04/03 03:15:36;;;;;;;0.60;0.50;;;;;;;21.58;40.08;99631.31;4496372;28;20849;-51
2024/04/03 03:17:49;;;;;;;0.60;0.60;;;;;;;21.58;39.84;99631.31;4499638;28;20109;-50
2024/04/03 03:19:59;;;;;;;0.43;0.43;;;;;;;21.57;39.81;99630.47;4499180;28;20160;-51
2024/04/03 03:22:09;;;;;;;0.57;0.50;;;;;;;21.57;39.80;99626.75;4501519;28;20160;-50
2024/04/03 03:24:21;;;;;;;0.52;0.43;;;;;;;21.57;40.07;99623.91;4499084;28;20122;-50
2024/04/03 03:26:32;;;;;;;0.70;0.60;;;;;;;21.56;40.04;99625.13;4491063;28;20111;-50
2024/04/03 03:28:42;;;;;;;0.55;0.40;;;;;;;21.56;40.16;99623.09;4491299;28;21571;-50
2024/04/03 03:30:52;;;;;;;0.98;0.43;;;;;;;21.55;39.92;99617.75;4499655;28;20045;-51
2024/04/03 03:33:03;;;;;;;0.85;0.50;;;;;;;21.56;39.69;99623.09;4501536;28;20049;-51
2024/04/03 03:35:14;;;;;;;0.68;0.50;;;;;;;21.56;40.06;99614.47;4498660;28;20125;-50
2024/04/03 03:37:24;;;;;;;0.60;0.40;;;;;;;21.55;40.12;99621.44;4500289;28;20038;-50
2024/04/03 03:39:34;;;;;;;0.57;0.55;;;;;;;21.55;39.77;99618.56;4499069;28;24482;-51
2024/04/03 03:41:45;;;;;;;0.50;0.45;;;;;;;21.54;40.18;99616.91;4499637;28;20076;-50
2024/04/03 03:43:55;;;;;;;0.85;0.50;;;;;;;21.55;40.00;99620.63;4483943;28;20130;-52
2024/04/03 03:46:06;;;;;;;1.08;0.70;;;;;;;21.55;39.67;99612.81;4498075;28;20026;-51
2024/04/03 03:48:17;;;;;;;0.68;0.43;;;;;;;21.54;39.89;99616.06;4498598;28;20040;-51
2024/04/03 03:52:59;;;;;;;0.40;0.40;;;;;;;21.53;39.99;99606.63;4499953;28;20041;-50
2024/04/03 03:55:09;;;;;;;0.60;0.40;;;;;;;21.53;39.88;99608.69;4498536;28;20050;-51
2024/04/03 03:57:20;;;;;;;0.55;0.40;;;;;;;21.52;40.00;99605.00;4498793;28;20479;-50
2024/04/03 03:59:30;;;;;;;0.85;0.40;;;;;;;21.52;39.59;99602.13;4498667;28;26984;-50
2024/04/03 04:01:40;;;;;;;0.50;0.50;;;;;;;21.52;40.00;99602.13;4499228;28;20035;-50
2024/04/03 04:03:51;;;;;;;0.40;0.40;;;;;;;21.52;39.77;99601.28;4499844;28;20038;-51
2024/04/03 04:06:01;;;;;;;0.68;0.50;;;;;;;21.51;39.81;99603.34;4498948;28;20046;-51
2024/04/03 04:08:12;;;;;;;0.50;0.50;;;;;;;21.51;39.95;99611.97;4498240;28;20030;-51
2024/04/03 04:10:22;;;;;;;0.52;0.40;;;;;;;21.52;39.72;99599.25;4499641;28;20045;-50
2024/04/03 04:12:33;;;;;;;0.40;0.30;;;;;;;21.51;39.73;99594.75;4498159;28;20510;-50
2024/04/03 04:14:51;;;;;;;0.75;0.60;;;;;;;21.51;39.62;99603.34;4499663;28;20470;-51
2024/04/03 04:17:01;;;;;;;0.63;0.50;;;;;;;21.50;40.05;99598.81;4498358;28;20046;-51
2024/04/03 04:19:12;;;;;;;0.63;0.43;;;;;;;21.50;39.72;99604.56;4499640;28;20954;-50
2024/04/03 04:21:23;;;;;;;0.52;0.40;;;;;;;21.49;40.33;99597.19;4498899;28;20395;-50
2024/04/03 04:23:33;;;;;;;0.68;0.50;;;;;;;21.50;40.10;99592.28;4497629;28;20566;-52
2024/04/03 04:25:56;;;;;;;0.40;0.40;;;;;;;21.50;39.80;99604.56;4498229;28;20121;-51
2024/04/03 04:28:07;;;;;;;0.45;0.30;;;;;;;21.49;39.93;99600.03;4498513;28;20125;-51
2024/04/03 04:30:17;;;;;;;0.85;0.50;;;;;;;21.49;39.87;99602.91;4499030;28;20431;-51
2024/04/03 04:32:27;;;;;;;0.30;0.30;;;;;;;21.49;39.86;99607.81;4499544;28;29466;-52
2024/04/03 04:34:41;;;;;;;0.52;0.40;;;;;;;21.49;39.77;99599.22;4482200;28;20064;-51
2024/04/03 04:36:52;;;;;;;0.50;0.28;;;;;;;21.48;39.78;99601.28;4497273;28;20520;-51
2024/04/03 04:39:03;;;;;;;0.65;0.50;;;;;;;21.46;39.47;99600.84;4481358;28;20035;-53
2024/04/03 04:41:14;;;;;;;0.57;0.40;;;;;;;21.47;39.59;99595.94;4498969;28;20038;-50
2024/04/03 04:43:26;;;;;;;0.38;0.38;;;;;;;21.47;39.59;99601.69;4498272;28;20030;-51
2024/04/03 04:45:37;;;;;;;0.50;0.35;;;;;;;21.47;39.72;99599.63;4497751;28;20566;-53
2024/04/03 04:47:47;;;;;;;1.10;0.50;;;;;;;21.46;39.74;99595.09;4497921;28;20137;-50
2024/04/03 04:49:57;;;;;;;0.47;0.40;;;;;;;21.47;39.94;99598.81;4497666;28;20042;-50
2024/04/03 04:52:08;;;;;;;0.57;0.30;;;;;;;21.46;39.71;99592.22;4499398;28;20026;-50
2024/04/03 04:54:18;;;;;;;0.60;0.50;;;;;;;21.46;39.62;99588.53;4499435;28;20387;-50
2024/04/03 04:56:29;;;;;;;0.38;0.38;;;;;;;21.45;39.82;99578.28;4498644;28;20042;-51
2024/04/03 04:58:39;;;;;;;0.30;0.30;;;;;;;21.45;39.92;99587.72;4499846;28;21034;-52
2024/04/03 05:01:00;;;;;;;1.25;0.40;;;;;;;21.44;39.91;99586.06;4497811;28;21047;-52
2024/04/03 05:03:10;;;;;;;1.10;0.43;;;;;;;21.45;40.04;99589.75;4499666;28;20038;-50
2024/04/03 05:05:21;;;;;;;0.63;0.52;;;;;;;21.44;39.98;99586.06;4497908;28;20046;-52
2024/04/03 05:07:31;;;;;;;1.58;0.52;;;;;;;21.45;39.67;99592.63;4498523;28;20228;-52
2024/04/03 05:09:41;;;;;;;1.35;0.40;;;;;;;21.44;39.95;99588.94;4498669;28;20034;-51
2024/04/03 05:11:52;;;;;;;0.65;0.40;;;;;;;21.44;39.90;99588.94;4498947;28;20042;-50
2024/04/03 05:14:02;;;;;;;0.30;0.30;;;;;;;21.43;39.88;99587.28;4498568;28;20026;-50
2024/04/03 05:16:14;;;;;;;0.93;0.45;;;;;;;21.42;40.08;99579.88;4497551;28;20042;-51
2024/04/03 05:18:25;;;;;;;0.70;0.38;;;;;;;21.43;39.90;99572.94;4498211;28;20043;-50
2024/04/03 05:20:35;;;;;;;0.30;0.30;;;;;;;21.43;39.94;99575.81;4499282;28;20046;-50
2024/04/03 05:22:46;;;;;;;0.57;0.45;;;;;;;21.42;40.05;99568.41;4498222;28;20045;-50
2024/04/03 05:24:56;;;;;;;0.55;0.32;;;;;;;21.43;40.06;99578.69;4496356;28;20038;-52
2024/04/03 05:27:06;;;;;;;0.63;0.47;;;;;;;21.43;40.13;99569.22;4498784;28;20605;-51
2024/04/03 05:29:17;;;;;;;0.40;0.40;;;;;;;21.42;40.17;99570.47;4498618;28;20160;-51
2024/04/03 05:31:27;;;;;;;0.40;0.40;;;;;;;21.41;39.98;99565.94;4497430;28;20705;-51
2024/04/03 05:33:38;;;;;;;0.63;0.40;;;;;;;21.41;40.40;99565.94;4497643;28;20070;-50
2024/04/03 05:35:56;;;;;;;0.43;0.40;;;;;;;21.42;39.98;99562.66;4497700;28;20022;-51
2024/04/03 05:38:06;;;;;;;1.10;0.40;;;;;;;21.41;40.13;99560.19;4497050;28;20034;-50
2024/04/03 05:40:17;;;;;;;0.50;0.40;;;;;;;21.41;40.20;99560.19;4498470;28;20046;-50
2024/04/03 05:42:27;;;;;;;0.30;0.30;;;;;;;21.40;40.45;99565.13;4499717;28;20391;-51
2024/04/03 05:44:37;;;;;;;0.35;0.35;;;;;;;21.41;40.22;99554.44;4497599;28;20100;-53
2024/04/03 05:46:48;;;;;;;0.98;0.60;;;;;;;21.39;40.50;99556.91;4495869;28;21832;-51
2024/04/03 05:48:58;;;;;;;0.30;0.30;;;;;;;21.40;40.34;99553.63;4496225;28;20100;-51
2024/04/03 05:51:09;;;;;;;0.40;0.40;;;;;;;21.38;40.11;99550.34;4498440;28;20612;-50
2024/04/03 05:53:19;;;;;;;0.55;0.40;;;;;;;21.38;40.92;99547.47;4499640;28;20029;-51
2024/04/03 05:55:30;;;;;;;0.50;0.50;;;;;;;21.39;40.41;99548.31;4497890;28;20045;-51
2024/04/03 05:57:40;;;;;;;0.40;0.40;;;;;;;21.39;40.49;99545.44;4497296;28;20137;-52
2024/04/03 05:59:51;;;;;;;0.82;0.40;;;;;;;21.38;40.57;99549.50;4497211;28;20108;-51
2024/04/03 06:02:01;;;;;;;0.40;0.40;;;;;;;21.39;40.63;99548.31;4498391;28;20046;-52
2024/04/03 06:04:12;;;;;;;1.13;0.40;;;;;;;21.38;40.71;99538.84;4497500;28;20037;-50
2024/04/03 06:06:22;;;;;;;0.82;0.70;;;;;;;21.38;40.74;99538.84;4496503;28;20140;-51
2024/04/03 06:08:32;;;;;;;0.50;0.45;;;;;;;21.37;40.39;99540.09;4498212;28;21700;-50
2024/04/03 06:10:43;;;;;;;0.50;0.50;;;;;;;21.38;40.36;99535.97;4497380;28;20039;-50
2024/04/03 06:12:54;;;;;;;1.13;0.50;;;;;;;21.37;40.65;99537.22;4498095;28;20041;-51
2024/04/03 06:15:04;;;;;;;0.35;0.35;;;;;;;21.37;40.67;99533.50;4498284;28;20035;-54
2024/04/03 06:17:15;;;;;;;1.00;0.60;;;;;;;21.37;40.81;99542.13;4496391;28;20091;-50
2024/04/03 06:19:25;;;;;;;1.10;0.55;;;;;;;21.36;40.41;99541.28;4498475;28;20025;-50
2024/04/03 06:21:36;;;;;;;0.60;0.50;;;;;;;21.37;40.80;99542.97;4497155;28;20264;-51
2024/04/03 06:23:47;;;;;;;0.57;0.40;;;;;;;21.37;40.90;99537.22;4497991;28;20121;-50
2024/04/03 06:25:57;;;;;;;0.40;0.40;;;;;;;21.37;41.18;99528.59;4496155;28;20057;-50
2024/04/03 06:28:07;;;;;;;0.93;0.52;;;;;;;21.38;41.02;99535.16;4479832;28;20578;-51
2024/04/03 06:30:18;;;;;;;0.68;0.50;;;;;;;21.37;40.66;99530.63;4497833;28;20952;-50
2024/04/03 06:32:28;;;;;;;0.30;0.30;;;;;;;21.37;41.00;99528.59;4496839;28;20565;-52
2024/04/03 06:34:39;;;;;;;0.75;0.60;;;;;;;21.37;41.12;99537.22;4493796;28;20498;-51
2024/04/03 06:36:49;;;;;;;0.50;0.50;;;;;;;21.36;41.20;99529.81;4497034;28;20045;-51
2024/04/03 06:39:00;;;;;;;0.50;0.40;;;;;;;21.36;41.07;99535.53;4496852;28;20085;-50
2024/04/03 06:41:10;;;;;;;0.95;0.60;;;;;;;21.35;41.29;99531.03;4495892;28;20494;-53
2024/04/03 06:43:21;;;;;;;0.50;0.50;;;;;;;21.35;41.53;99528.16;4496914;28;20038;-51
2024/04/03 06:45:31;;;;;;;0.73;0.50;;;;;;;21.36;41.38;99534.75;4498119;28;20121;-51
2024/04/03 06:47:42;;;;;;;0.88;0.60;;;;;;;21.36;41.51;99529.00;4497630;28;20030;-53
2024/04/03 06:49:54;;;;;;;1.65;0.70;;;;;;;21.36;41.54;99529.81;4497219;28;20402;-51
2024/04/03 06:52:05;;;;;;;0.57;0.50;;;;;;;21.35;41.50;99525.31;4496022;28;20097;-51
2024/04/03 06:54:18;;;;;;;1.48;0.70;;;;;;;21.35;41.20;99528.16;4496069;28;20054;-51
2024/04/03 06:56:28;;;;;;;0.65;0.63;;;;;;;21.34;41.34;99523.66;4497794;28;20584;-52
2024/04/03 06:58:40;;;;;;;1.33;0.70;;;;;;;21.35;41.57;99515.84;4494521;28;27008;-50
2024/04/03 07:00:50;;;;;;;0.50;0.50;;;;;;;21.35;41.62;99522.44;4497644;28;20117;-51
2024/04/03 07:03:01;;;;;;;0.60;0.60;;;;;;;21.35;41.42;99518.72;4497048;28;20045;-51
2024/04/03 07:05:11;;;;;;;1.40;0.90;;;;;;;21.35;41.55;99522.44;4482300;28;20046;-50
2024/04/03 07:07:22;;;;;;;0.70;0.60;;;;;;;21.34;41.84;99520.78;4495951;28;20050;-51
2024/04/03 07:09:32;;;;;;;0.88;0.77;;;;;;;21.33;41.70;99524.88;4497648;28;20026;-50
2024/04/03 07:11:43;;;;;;;1.85;0.70;;;;;;;21.34;41.73;99526.53;4496453;28;20037;-50
2024/04/03 07:13:53;;;;;;;0.65;0.52;;;;;;;21.33;42.13;99536.34;4497293;28;20364;-51
2024/04/03 07:16:04;;;;;;;0.80;0.65;;;;;;;21.34;41.56;99538.00;4496202;28;20553;-52
2024/04/03 07:18:16;;;;;;;0.77;0.50;;;;;;;21.35;41.60;99544.56;4497395;28;20061;-50
2024/04/03 07:20:30;;;;;;;1.10;0.60;;;;;;;21.33;41.95;99544.97;4498494;28;20117;-50
2024/04/03 07:22:41;;;;;;;0.60;0.50;;;;;;;21.33;42.02;99544.97;4496880;28;21450;-51
2024/04/03 07:24:51;;;;;;;0.70;0.50;;;;;;;21.34;42.10;99540.88;4496502;28;20046;-51
2024/04/03 07:27:02;;;;;;;0.47;0.40;;;;;;;21.34;42.13;99549.50;4495498;28;20048;-51
2024/04/03 07:29:14;;;;;;;1.17;0.50;;;;;;;21.34;41.60;99540.06;4497949;28;20052;-51
2024/04/03 07:31:24;;;;;;;0.88;0.60;;;;;;;21.32;42.05;99542.47;4480696;28;20081;-51
2024/04/03 07:33:34;;;;;;;0.93;0.55;;;;;;;21.33;41.81;99544.97;4496895;28;20118;-51
2024/04/03 07:35:45;;;;;;;0.65;0.50;;;;;;;21.32;42.03;99543.31;4496182;28;20038;-50
2024/04/03 07:37:56;;;;;;;0.90;0.70;;;;;;;21.32;42.15;99534.72;4496067;28;20145;-51
2024/04/03 07:40:11;;;;;;;0.80;0.70;;;;;;;21.33;41.78;99547.81;4488727;28;20035;-50
2024/04/03 07:42:21;;;;;;;0.85;0.60;;;;;;;21.33;41.57;99542.09;4495876;28;21429;-51
2024/04/03 07:44:32;;;;;;;1.20;0.70;;;;;;;21.35;41.95;99535.94;4495269;28;20109;-52
2024/04/03 07:46:42;;;;;;;0.98;0.60;;;;;;;21.34;41.62;99529.41;4481888;28;20069;-54
2024/04/03 07:48:53;;;;;;;0.77;0.60;;;;;;;21.34;41.78;99537.19;4481605;28;20041;-51
2024/04/03 07:51:04;;;;;;;0.98;0.70;;;;;;;21.35;41.72;99541.69;4498873;28;20225;-52
2024/04/03 07:53:14;;;;;;;0.50;0.50;;;;;;;21.34;41.85;99538.00;4499417;28;20088;-55
2024/04/03 07:55:24;;;;;;;0.70;0.30;;;;;;;21.34;41.79;99543.75;4500017;28;20049;-50
2024/04/03 07:57:36;;;;;;;0.63;0.50;;;;;;;21.35;41.87;99539.66;4481119;28;20137;-52
2024/04/03 07:59:48;;;;;;;0.70;0.50;;;;;;;21.35;41.62;99544.56;4498514;28;20601;-51
2024/04/03 08:01:58;;;;;;;0.65;0.40;;;;;;;21.34;41.86;99543.75;4498981;28;20565;-50
2024/04/03 08:04:09;;;;;;;0.30;0.30;;;;;;;21.36;41.74;99532.69;4499855;28;20038;-51
2024/04/03 08:06:20;;;;;;;0.98;0.80;;;;;;;21.35;41.92;99533.91;4500750;28;20108;-51
2024/04/03 08:08:30;;;;;;;0.38;0.30;;;;;;;21.35;41.69;99528.16;4501496;28;20113;-55
2024/04/03 08:10:41;;;;;;;0.38;0.30;;;;;;;21.36;41.85;99534.75;4500199;28;20038;-51
2024/04/03 08:12:51;;;;;;;0.60;0.40;;;;;;;21.37;41.74;99537.22;4498896;28;20042;-51
2024/04/03 08:15:02;;;;;;;0.63;0.50;;;;;;;21.36;41.93;99534.75;4498022;28;20045;-49
2024/04/03 08:17:12;;;;;;;0.98;0.50;;;;;;;21.35;42.25;99530.22;4497816;28;20499;-50
2024/04/03 08:19:23;;;;;;;0.43;0.43;;;;;;;21.33;42.11;99535.50;4497344;28;20026;-48
2024/04/03 08:21:36;;;;;;;0.68;0.50;;;;;;;21.33;42.24;99530.59;4499453;28;20082;-49
2024/04/03 08:23:46;;;;;;;0.60;0.43;;;;;;;21.34;42.28;99531.44;4498056;28;20034;-49
2024/04/03 08:26:05;;;;;;;0.40;0.40;;;;;;;21.35;42.20;99533.91;4498177;28;20450;-50
2024/04/03 08:28:15;;;;;;;0.30;0.30;;;;;;;21.34;41.93;99532.28;4499334;28;20092;-50
2024/04/03 08:30:26;;;;;;;0.38;0.38;;;;;;;21.34;41.55;99526.53;4498294;28;20049;-50
2024/04/03 08:32:38;;;;;;;0.35;0.30;;;;;;;21.35;40.69;99519.56;4466237;28;20066;-51
2024/04/03 08:34:51;;;;;;;0.70;0.35;;;;;;;21.35;41.08;99524.47;4498347;28;21008;-52
2024/04/03 08:37:04;;;;;;;0.50;0.40;;;;;;;21.34;40.70;99520.78;4498718;28;20041;-49
2024/04/03 08:39:14;;;;;;;0.93;0.50;;;;;;;21.34;40.99;99526.53;4490256;28;20035;-50
2024/04/03 08:41:25;;;;;;;0.60;0.40;;;;;;;21.34;40.90;99526.53;4481609;28;20372;-50
2024/04/03 08:43:35;;;;;;;0.40;0.30;;;;;;;21.36;40.79;99529.00;4499590;28;20049;-52
2024/04/03 08:45:48;;;;;;;0.45;0.40;;;;;;;21.35;40.73;99522.44;4496896;28;20066;-49
2024/04/03 08:47:59;;;;;;;0.80;0.45;;;;;;;21.34;40.43;99522.81;4497959;28;20620;-50
2024/04/03 08:50:10;;;;;;;0.73;0.30;;;;;;;21.35;40.82;99521.59;4497688;28;20056;-49
2024/04/03 08:52:28;;;;;;;0.70;0.40;;;;;;;21.33;40.86;99516.25;4498698;28;20044;-49
2024/04/03 08:54:43;;;;;;;0.50;0.30;;;;;;;21.33;40.73;99513.38;4490880;28;20069;-49
2024/04/03 08:56:54;;;;;;;0.63;0.40;;;;;;;21.34;41.08;99512.19;4496334;28;20129;-50
2024/04/03 08:59:05;;;;;;;2.15;0.57;;;;;;;21.34;41.30;99512.19;4496642;28;20084;-50
2024/04/03 09:01:15;;;;;;;0.73;0.50;;;;;;;21.34;40.92;99503.56;4499326;28;20134;-49
2024/04/03 09:03:26;;;;;;;0.80;0.50;;;;;;;21.34;40.98;99503.56;4479843;28;20031;-50
2024/04/03 09:05:36;;;;;;;1.02;0.55;;;;;;;21.34;41.31;99509.31;4499084;28;20446;-52
2024/04/03 09:07:46;;;;;;;0.65;0.45;;;;;;;21.33;41.03;99504.78;4497793;28;20351;-50
2024/04/03 09:09:57;;;;;;;0.75;0.60;;;;;;;21.34;41.22;99499.88;4482805;28;20051;-50
2024/04/03 09:12:08;;;;;;;0.73;0.50;;;;;;;21.34;41.68;99503.56;4491155;28;20038;-50
2024/04/03 09:14:23;;;;;;;1.17;0.35;;;;;;;21.34;41.39;99503.56;4499230;28;20042;-51
2024/04/03 09:16:33;;;;;;;0.45;0.30;;;;;;;21.34;41.24;99503.56;4498501;28;20675;-50
2024/04/03 09:18:43;;;;;;;0.40;0.40;;;;;;;21.33;41.57;99493.28;4499208;28;20070;-52
2024/04/03 09:20:54;;;;;;;0.50;0.38;;;;;;;21.33;41.17;99501.06;4498850;28;20042;-54
2024/04/03 09:23:08;;;;;;;0.30;0.30;;;;;;;21.33;41.37;99501.91;4498756;28;20045;-49
2024/04/03 09:25:19;;;;;;;0.95;0.40;;;;;;;21.33;41.16;99501.06;4499607;28;20913;-51
2024/04/03 09:27:29;;;;;;;0.30;0.30;;;;;;;21.33;41.48;99499.03;4499733;28;20116;-54
2024/04/03 09:29:40;;;;;;;0.47;0.30;;;;;;;21.33;41.07;99495.31;4496838;28;20579;-50
2024/04/03 09:31:51;;;;;;;0.55;0.30;;;;;;;21.34;40.98;99492.09;4497636;28;20402;-49
2024/04/03 09:34:03;;;;;;;0.75;0.40;;;;;;;21.34;41.00;99489.22;4498297;28;20109;-53
2024/04/03 09:36:15;;;;;;;0.82;0.40;;;;;;;21.33;41.24;99496.16;4501048;28;20080;-50
2024/04/03 09:38:25;;;;;;;0.55;0.38;;;;;;;21.32;40.68;99491.66;4499615;28;20081;-52
2024/04/03 09:40:37;;;;;;;0.52;0.30;;;;;;;21.33;40.71;99490.41;4499503;28;20134;-54
2024/04/03 09:42:54;;;;;;;0.63;0.40;;;;;;;21.34;40.72;99489.22;4498877;28;20030;-54
2024/04/03 09:45:07;;;;;;;0.63;0.30;;;;;;;21.33;40.31;99484.69;4498286;28;20042;-50
2024/04/03 09:47:22;;;;;;;0.22;0.22;;;;;;;21.34;40.28;99488.38;4499299;28;20915;-50
2024/04/03 09:49:44;;;;;;;0.52;0.30;;;;;;;21.34;40.02;99491.25;4497568;28;20053;-51
2024/04/03 09:51:55;;;;;;;0.30;0.30;;;;;;;21.33;40.12;99484.69;4497313;28;20026;-52
2024/04/03 09:54:07;;;;;;;0.65;0.30;;;;;;;21.33;39.97;99476.06;4480039;28;20080;-50
2024/04/03 09:56:17;;;;;;;0.70;0.40;;;;;;;21.34;39.80;99479.78;4496898;28;20612;-50
2024/04/03 09:58:34;;;;;;;0.90;0.30;;;;;;;21.33;39.73;99484.69;4496829;28;20050;-49
2024/04/03 10:00:51;;;;;;;;;;;;;;;21.34;39.97;99483.47;4498986;28;20038;-49
2024/04/03 10:03:02;;;;;;;0.60;0.30;;;;;;;21.34;39.83;99492.09;4498355;28;20735;-53
2024/04/03 10:05:13;;;;;;;0.32;0.20;;;;;;;21.33;40.00;99487.56;4480479;28;20043;-51
2024/04/03 10:07:26;;;;;;;0.38;0.38;;;;;;;21.33;40.05;99484.69;4496130;28;20035;-52
2024/04/03 10:09:37;;;;;;;0.80;0.40;;;;;;;21.34;39.88;99485.50;4497416;28;20038;-51
2024/04/03 10:11:52;;;;;;;0.85;0.30;;;;;;;21.34;39.67;99486.34;4498990;28;20116;-52
2024/04/03 10:14:04;;;;;;;0.30;0.30;;;;;;;21.34;39.62;99483.47;4497856;28;20767;-49
2024/04/03 10:16:15;;;;;;;0.47;0.40;;;;;;;21.34;39.77;99492.09;4497490;28;20056;-53
2024/04/03 10:18:34;;;;;;;0.30;0.25;;;;;;;21.33;39.71;99484.69;4498089;28;20160;-50
2024/04/03 10:20:44;;;;;;;0.20;0.20;;;;;;;21.34;39.08;99492.09;4497411;28;20092;-50